Filly — WDC2691 — position and weather

sailwx.info

Track history (hours):
 
Tides and Currents Weather Stations Pressure Air Temp Water Temp Dewpoint Dewpoint Depression Visibility Wind Speed Wind Dir Waves Ship Positions

Filly

Owner: Kirby Inland Marine LP, Houston, TX. More information available from US FCC via Universal Licensing System and Coast Guard Vessel Documentation Center.

Last reported at 2018-Apr-25 23:20 UTC. Time now 2018-Apr-26 11:10 UTC.
Position N 29°42' W 095°01'.

Length 78 m; draft 2.6 m.

Type: . MMSI: 366996460.

Date/timePositionNaut miles runAvg speedWind from/ knotsBaromVisibWave heightAir tempDewpointWater temp
2018-Apr-25 23:20N 29°42' W 095°01'5 0.6
2018-Apr-25 15:42N 29°40' W 094°56'2 4.2
2018-Apr-25 15:17N 29°41' W 094°58'1 4.6
2018-Apr-25 15:00N 29°41' W 094°59'2 0.3
2018-Apr-25 08:03N 29°42' W 095°01'0 0.0
2018-Apr-23 16:53N 29°42' W 095°01'2 3.5
2018-Apr-23 16:24N 29°43' W 095°03'0 0.0
2018-Apr-23 13:00N 29°43' W 095°03'  
2018-Apr-20 20:42N 29°44' W 095°07'  
2018-Apr-18 05:00N 29°47' W 095°05'5 0.3
2018-Apr-17 11:02N 29°42' W 095°01'0 7.5
2018-Apr-17 11:00N 29°42' W 095°01'4 2.6
2018-Apr-17 09:21N 29°42' W 094°56'3 1.5
2018-Apr-17 07:19N 29°45' W 094°55'3 3.2
2018-Apr-17 06:27N 29°43' W 094°57'2 2.0
2018-Apr-17 05:35N 29°42' W 094°55'0 1.8
2018-Apr-17 05:27N 29°42' W 094°55'2 3.3
2018-Apr-17 05:00N 29°40' W 094°56'2 4.4
2018-Apr-17 04:30N 29°41' W 094°58'3 5.0
2018-Apr-17 03:59N 29°42' W 095°01'  
Track history (hours):
 
Tides and Currents Weather Stations Pressure Air Temp Water Temp Dewpoint Dewpoint Depression Visibility Wind Speed Wind Dir Waves Ship Positions

Filly

Owner: Kirby Inland Marine LP, Houston, TX. More information available from US FCC via Universal Licensing System and Coast Guard Vessel Documentation Center.

Last reported at 2018-Apr-25 23:20 UTC. Time now 2018-Apr-26 11:10 UTC.
Position N 29°42' W 095°01'.

Length 78 m; draft 2.6 m.

Type: . MMSI: 366996460.

Date/timePositionNaut miles runAvg speedWind from/ knotsBaromVisibWave heightAir tempDewpointWater temp
2018-Apr-25 23:20N 29°42' W 095°01'5 0.6
2018-Apr-25 15:42N 29°40' W 094°56'2 4.2
2018-Apr-25 15:17N 29°41' W 094°58'1 4.6
2018-Apr-25 15:00N 29°41' W 094°59'2 0.3
2018-Apr-25 08:03N 29°42' W 095°01'0 0.0
2018-Apr-23 16:53N 29°42' W 095°01'2 3.5
2018-Apr-23 16:24N 29°43' W 095°03'0 0.0
2018-Apr-23 13:00N 29°43' W 095°03'  
2018-Apr-20 20:42N 29°44' W 095°07'  
2018-Apr-18 05:00N 29°47' W 095°05'5 0.3
2018-Apr-17 11:02N 29°42' W 095°01'0 7.5
2018-Apr-17 11:00N 29°42' W 095°01'4 2.6
2018-Apr-17 09:21N 29°42' W 094°56'3 1.5
2018-Apr-17 07:19N 29°45' W 094°55'3 3.2
2018-Apr-17 06:27N 29°43' W 094°57'2 2.0
2018-Apr-17 05:35N 29°42' W 094°55'0 1.8
2018-Apr-17 05:27N 29°42' W 094°55'2 3.3
2018-Apr-17 05:00N 29°40' W 094°56'2 4.4
2018-Apr-17 04:30N 29°41' W 094°58'3 5.0
2018-Apr-17 03:59N 29°42' W 095°01'  

Dump ship's entire track history